EmailTwitter


Surface observations / France / LFBD (07510)

Regions: Quebec | Canada | USA | Europe | France | UK | Elsewhere
Station
Display
Info & Location for LFBD (07510) | Help decoding METAR

Weather Conditions observed on 2018/02/18 at 03:00 UTC at BORDEAUX/MERIGNA, FR (LFBD)

Sky conditions: few clouds.

Temperature: 2.0 Celsius.

Dewpoint: 1.0 Celsius.

Relative Humidity: 93%

Winds: South-southwest at 4 km/h or 2 knots.

Mean Sea level Pressure: 102.70 kilopascals.

Horizontal visibility: 6.21 statute miles or 9.94 kilometers.

Coded METAR:

LFBD 180300Z AUTO 20002KT 9999 FEW010 02/01 Q1027 TEMPO 3000 BR=